Junction City, KS

4:31 AM CDT on September 03, 2015 (GMT -0500)
Indian Ridge | | Change Station
CLOSE
Current Station
Personal Weather Station
Location: Junction City, KS
Elevation: 1227 ft
Nearby Weather Stations

Elev 1227 ft 39.02 °N, 96.87 °W | Updated 10 minutes ago

Partly Cloudy
Partly Cloudy
75.6 °F
Feels Like 78 °F
N
6.8
Wind Variable Wind from South

Today
High -- | Low -- °F
--% Chance of Precip.
Yesterday
High -- | Low -- °F
Precip. -- in
6:57 AM 7:55 PM
Waning Gibbous, 72% visible
Pressure 29.84 in
Visibility 10.0 miles
Clouds Scattered Clouds 12000 ft
Heat Index 78 °F
Dew Point 62 °F
Humidity 63%
Rainfall 0.00 in
Snow Depth Not available.
UV 0 out of 12
Pollen 10.00 out of 12
Air Quality Not available.
Flu Activity Not available.
METAR KFRI 030858Z AUTO 20008KT 10SM SCT120 25/18 A2988 RMK AO2 SLP104 T02480181 55001
Pressure 29.84 in
Visibility 10.0 miles
Clouds Scattered Clouds 12000 ft
Heat Index 78 °F
Dew Point 62 °F
Humidity 63%
Rainfall 0.00 in
Snow Depth Not available.
UV 0 out of 12
Pollen 10.00 out of 12
Air Quality Not available.
Flu Activity Not available.
METAR KFRI 030858Z AUTO 20008KT 10SM SCT120 25/18 A2988 RMK AO2 SLP104 T02480181 55001

10-Day Weather Forecast

×

Almanac

Astronomy

Sep. 03, 2015 Rise Set
Actual Time
Civil Twilight
Nautical Twilight
Astronomical Twilight
Moon
Length of Visible Light
Length of Day
Tomorrow will be .
, % of the Moon is Illuminated

Today's Extremes

State Highs State Lows

Community

WunderPhotos

Upload Photos

1,851,923 photos uploaded!

WunderBlogs® & News

Nearby

Air Quality

  Air Quality AQ Index Pollutant
Not available.

Snow Depth

Station Depth Elevation

Earthquake Activity

City Distance Mag. Time & Date
Minimum magnitude displayed is 2.5.

Coastal Water Temperatures

Place Temperature

Stations

Nearby Weather Stations

Station Location Temp. Windchill Dew Point Humidity Wind Precip. Elev Updated Type